createdAt,value
2018-01-15T00:00:43.815Z,1.40
2018-01-15T00:01:43.830Z,1.40
2018-01-15T00:02:43.844Z,1.38
2018-01-15T00:03:43.864Z,1.40
2018-01-15T00:04:43.872Z,1.42
2018-01-15T00:05:43.886Z,1.42
2018-01-15T00:06:43.900Z,1.42
2018-01-15T00:07:43.914Z,1.44
2018-01-15T00:08:43.928Z,1.45
2018-01-15T00:09:43.942Z,1.44
2018-01-15T00:10:43.956Z,1.42
2018-01-15T00:11:43.973Z,1.40
2018-01-15T00:12:43.988Z,1.38
2018-01-15T00:13:43.997Z,1.41
2018-01-15T00:14:44.016Z,1.38
2018-01-15T00:15:44.028Z,1.49
2018-01-15T00:16:44.041Z,1.38
2018-01-15T00:17:44.055Z,1.38
2018-01-15T00:18:44.070Z,1.38
2018-01-15T00:19:44.084Z,1.42
2018-01-15T00:20:44.097Z,1.38
2018-01-15T00:21:44.111Z,1.44
2018-01-15T00:22:44.125Z,1.48
2018-01-15T00:23:44.140Z,1.38
2018-01-15T00:24:44.153Z,1.35
2018-01-15T00:25:44.167Z,1.41
2018-01-15T00:26:44.189Z,1.40
2018-01-15T00:27:44.196Z,1.40
2018-01-15T00:28:44.210Z,1.40
2018-01-15T00:29:44.224Z,1.40
2018-01-15T00:30:44.239Z,1.48
2018-01-15T00:31:44.262Z,1.37
2018-01-15T00:32:44.266Z,1.44
2018-01-15T00:33:44.284Z,1.44
2018-01-15T00:34:44.295Z,1.38
2018-01-15T00:35:44.312Z,1.34
2018-01-15T00:36:44.323Z,1.38
2018-01-15T00:37:44.338Z,1.34
2018-01-15T00:38:44.353Z,1.42
2018-01-15T00:39:44.366Z,1.41
2018-01-15T00:40:44.429Z,1.35
2018-01-15T00:41:44.400Z,1.40
2018-01-15T00:42:44.408Z,1.40
2018-01-15T00:43:44.422Z,1.35
2018-01-15T00:44:44.437Z,1.50
2018-01-15T00:45:44.450Z,1.45
2018-01-15T00:46:44.464Z,1.37
2018-01-15T00:47:44.479Z,1.38
2018-01-15T00:48:44.492Z,1.38
2018-01-15T00:49:44.507Z,1.42
2018-01-15T00:50:44.521Z,1.40
2018-01-15T00:51:44.786Z,1.42
2018-01-15T00:52:44.550Z,1.41
2018-01-15T00:53:44.563Z,1.35
2018-01-15T00:54:44.578Z,1.32
2018-01-15T00:55:44.592Z,1.34
2018-01-15T00:56:44.605Z,1.34
2018-01-15T00:57:44.624Z,1.35
2018-01-15T00:58:44.785Z,1.30
2018-01-15T00:59:44.649Z,1.31
2018-01-15T01:00:44.662Z,1.30
2018-01-15T01:01:44.676Z,1.32
2018-01-15T01:02:44.692Z,1.32
2018-01-15T01:03:44.707Z,1.32
2018-01-15T01:04:44.718Z,1.31
2018-01-15T01:05:44.736Z,1.37
2018-01-15T01:06:44.748Z,1.38
2018-01-15T01:07:44.762Z,1.34
2018-01-15T01:08:44.775Z,1.35
2018-01-15T01:09:44.795Z,1.34
2018-01-15T01:10:44.804Z,1.35
2018-01-15T01:11:44.818Z,1.28
2018-01-15T01:12:44.832Z,1.35
2018-01-15T01:13:44.846Z,1.31
2018-01-15T01:14:44.861Z,1.34
2018-01-15T01:15:44.875Z,1.30
2018-01-15T01:16:44.893Z,1.26
2018-01-15T01:17:44.902Z,1.26
2018-01-15T01:18:44.917Z,1.26
2018-01-15T01:19:44.932Z,1.28
2018-01-15T01:20:44.945Z,1.41
2018-01-15T01:21:44.959Z,1.40
2018-01-15T01:22:44.975Z,1.38
2018-01-15T01:23:44.988Z,1.37
2018-01-15T01:24:45.003Z,1.37
2018-01-15T01:25:45.017Z,1.37
2018-01-15T01:26:45.031Z,1.31
2018-01-15T01:27:45.045Z,1.35
2018-01-15T01:28:45.059Z,1.34
2018-01-15T01:29:45.073Z,1.30
2018-01-15T01:30:45.087Z,1.32
2018-01-15T01:31:45.102Z,1.30
2018-01-15T01:32:45.115Z,1.26
2018-01-15T01:33:45.130Z,1.32
2018-01-15T01:34:45.144Z,1.24
2018-01-15T01:35:45.158Z,1.34
2018-01-15T01:36:45.172Z,1.31
2018-01-15T01:37:45.185Z,1.34
2018-01-15T01:38:45.200Z,1.28
2018-01-15T01:39:45.215Z,1.28
2018-01-15T01:40:45.234Z,1.31
2018-01-15T01:41:45.242Z,1.31
2018-01-15T01:42:45.257Z,1.35
2018-01-15T01:43:45.271Z,1.37
2018-01-15T01:44:45.285Z,1.37
2018-01-15T01:45:45.299Z,1.40
2018-01-15T01:46:45.313Z,1.35
2018-01-15T01:47:45.328Z,1.37
2018-01-15T01:48:45.341Z,1.35
2018-01-15T01:49:45.355Z,1.35
2018-01-15T01:50:45.370Z,1.31
2018-01-15T01:51:45.385Z,1.32
2018-01-15T01:52:45.397Z,1.37
2018-01-15T01:53:45.412Z,1.34
2018-01-15T01:54:45.427Z,1.32
2018-01-15T01:55:45.441Z,1.32
2018-01-15T01:56:45.454Z,1.31
2018-01-15T01:57:45.469Z,1.31
2018-01-15T01:58:45.484Z,1.28
2018-01-15T01:59:45.498Z,1.32
2018-01-15T02:00:45.511Z,1.37
2018-01-15T02:01:45.526Z,1.32
2018-01-15T02:02:45.541Z,1.42
2018-01-15T02:03:45.554Z,1.38
2018-01-15T02:04:45.567Z,1.32
2018-01-15T02:05:45.582Z,1.37
2018-01-15T02:06:45.597Z,1.40
2018-01-15T02:07:45.611Z,1.30
2018-01-15T02:08:45.626Z,1.35
2018-01-15T02:09:45.640Z,1.26
2018-01-15T02:10:45.653Z,1.35
2018-01-15T02:11:45.669Z,1.35
2018-01-15T02:12:45.682Z,1.31
2018-01-15T02:13:45.696Z,1.35
2018-01-15T02:14:45.713Z,1.37
2018-01-15T02:15:45.724Z,1.32
2018-01-15T02:16:45.738Z,1.30
2018-01-15T02:17:45.753Z,1.32
2018-01-15T02:18:45.766Z,1.37
2018-01-15T02:19:45.786Z,1.38
2018-01-15T02:20:45.797Z,1.37
2018-01-15T02:21:45.817Z,1.35
2018-01-15T02:22:45.824Z,1.40
2018-01-15T02:23:45.839Z,1.41
2018-01-15T02:24:45.851Z,1.37
2018-01-15T02:25:45.866Z,1.44
2018-01-15T02:26:45.880Z,1.41
2018-01-15T02:27:45.895Z,1.48
2018-01-15T02:28:45.909Z,1.38
2018-01-15T02:29:45.922Z,1.44
2018-01-15T02:30:45.937Z,1.52
2018-01-15T02:31:45.952Z,1.56
2018-01-15T02:32:45.965Z,1.50
2018-01-15T02:33:45.979Z,1.49
2018-01-15T02:34:45.994Z,1.53
2018-01-15T02:35:46.009Z,1.58
2018-01-15T02:36:46.022Z,1.50
2018-01-15T02:37:46.036Z,1.55
2018-01-15T02:38:46.051Z,1.53
2018-01-15T02:39:46.066Z,1.49
2018-01-15T02:40:46.080Z,1.63
2018-01-15T02:41:46.142Z,1.53
2018-01-15T02:42:46.109Z,1.58
2018-01-15T02:43:46.123Z,1.56
2018-01-15T02:44:46.136Z,1.52
2018-01-15T02:45:46.150Z,1.58
2018-01-15T02:46:46.167Z,1.55
2018-01-15T02:47:46.330Z,1.60
2018-01-15T02:48:46.194Z,1.63
2018-01-15T02:49:46.208Z,1.58
2018-01-15T02:50:46.223Z,1.53
2018-01-15T02:51:46.238Z,1.60
2018-01-15T02:52:46.251Z,1.50
2018-01-15T02:53:46.266Z,1.62
2018-01-15T02:54:46.280Z,1.59
2018-01-15T02:55:46.295Z,1.60
2018-01-15T02:56:46.309Z,1.63
2018-01-15T02:57:46.323Z,1.56
2018-01-15T02:58:46.488Z,1.62
2018-01-15T02:59:46.352Z,1.53
2018-01-15T03:00:46.366Z,1.55
2018-01-15T03:01:46.381Z,1.52
2018-01-15T03:02:46.396Z,1.52
2018-01-15T03:03:46.410Z,1.56
2018-01-15T03:04:46.424Z,1.49
2018-01-15T03:05:46.439Z,1.60
2018-01-15T03:06:46.453Z,1.62
2018-01-15T03:07:46.469Z,1.60
2018-01-15T03:08:46.487Z,1.68
2018-01-15T03:09:46.497Z,1.62
2018-01-15T03:10:46.511Z,1.59
2018-01-15T03:11:46.525Z,1.66
2018-01-15T03:12:46.540Z,1.67
2018-01-15T03:13:46.554Z,1.62
2018-01-15T03:14:46.568Z,1.66
2018-01-15T03:15:46.583Z,1.71
2018-01-15T03:16:46.597Z,1.70
2018-01-15T03:17:46.612Z,1.77
2018-01-15T03:18:46.627Z,1.74
2018-01-15T03:19:46.641Z,1.84
2018-01-15T03:20:46.655Z,1.80
2018-01-15T03:21:46.669Z,1.87
2018-01-15T03:22:46.684Z,1.80
2018-01-15T03:23:46.699Z,1.88
2018-01-15T03:24:46.712Z,1.85
2018-01-15T03:25:46.727Z,1.88
2018-01-15T03:26:46.742Z,2.00
2018-01-15T03:27:46.759Z,1.95
2018-01-15T03:28:46.771Z,1.92
2018-01-15T03:29:46.785Z,1.91
2018-01-15T03:30:46.801Z,1.94
2018-01-15T03:31:46.816Z,1.97
2018-01-15T03:32:46.829Z,1.97
2018-01-15T03:33:46.843Z,1.97
2018-01-15T03:34:46.859Z,1.91
2018-01-15T03:35:46.878Z,2.02
2018-01-15T03:36:46.887Z,2.07
2018-01-15T03:37:46.902Z,2.07
2018-01-15T03:38:46.917Z,2.07
2018-01-15T03:39:46.932Z,2.07
2018-01-15T03:40:46.945Z,2.14
2018-01-15T03:41:46.960Z,2.13
2018-01-15T03:42:46.980Z,2.07
2018-01-15T03:43:46.990Z,2.24
2018-01-15T03:44:47.054Z,2.20
2018-01-15T03:45:47.019Z,2.14
2018-01-15T03:46:47.034Z,2.22
2018-01-15T03:47:47.048Z,2.14
2018-01-15T03:48:47.065Z,2.07
2018-01-15T03:49:47.227Z,2.15
2018-01-15T03:50:47.092Z,2.18
2018-01-15T03:51:47.107Z,2.22
2018-01-15T03:52:47.120Z,2.20
2018-01-15T03:53:47.135Z,2.24
2018-01-15T03:54:47.151Z,2.22
2018-01-15T03:55:47.166Z,2.24
2018-01-15T03:56:47.181Z,2.22
2018-01-15T03:57:47.194Z,2.20
2018-01-15T03:58:47.209Z,2.18
2018-01-15T03:59:47.224Z,2.24
2018-01-15T04:00:47.239Z,2.15
2018-01-15T04:01:47.252Z,2.24
2018-01-15T04:02:47.267Z,2.28
2018-01-15T04:03:47.282Z,2.26
2018-01-15T04:04:47.296Z,2.24
2018-01-15T04:05:47.311Z,2.22
2018-01-15T04:06:47.325Z,2.24
2018-01-15T04:07:47.340Z,2.28
2018-01-15T04:08:47.353Z,2.29
2018-01-15T04:09:47.519Z,2.29
2018-01-15T04:10:47.384Z,2.28
2018-01-15T04:11:47.398Z,2.28
2018-01-15T04:12:47.411Z,2.26
2018-01-15T04:13:47.426Z,2.38
2018-01-15T04:14:47.440Z,2.31
2018-01-15T04:15:47.455Z,2.38
2018-01-15T04:16:47.469Z,2.43
2018-01-15T04:17:47.483Z,2.43
2018-01-15T04:18:47.498Z,2.36
2018-01-15T04:19:47.513Z,2.33
2018-01-15T04:20:47.526Z,2.35
2018-01-15T04:21:47.541Z,2.38
2018-01-15T04:22:47.556Z,2.39
2018-01-15T04:23:47.570Z,2.33
2018-01-15T04:24:47.584Z,2.49
2018-01-15T04:25:47.599Z,2.49
2018-01-15T04:26:47.613Z,2.38
2018-01-15T04:27:47.629Z,2.39
2018-01-15T04:28:47.642Z,2.42
2018-01-15T04:29:47.656Z,2.31
2018-01-15T04:30:47.671Z,2.46
2018-01-15T04:31:47.686Z,2.42
2018-01-15T04:32:47.699Z,2.39
2018-01-15T04:33:47.717Z,2.43
2018-01-15T04:34:47.729Z,2.47
2018-01-15T04:35:47.747Z,2.38
2018-01-15T04:36:47.757Z,2.39
2018-01-15T04:37:47.771Z,2.42
2018-01-15T04:38:47.786Z,2.46
2018-01-15T04:39:47.802Z,2.49
2018-01-15T04:40:47.821Z,2.50
2018-01-15T04:41:47.829Z,2.46
2018-01-15T04:42:47.844Z,2.49
2018-01-15T04:43:47.859Z,2.50
2018-01-15T04:44:47.874Z,2.44
2018-01-15T04:45:47.887Z,2.36
2018-01-15T04:46:47.904Z,2.47
2018-01-15T04:47:47.916Z,2.49
2018-01-15T04:48:47.946Z,2.49
2018-01-15T04:49:48.046Z,2.47
2018-01-15T04:50:47.960Z,2.49
2018-01-15T04:51:47.974Z,2.47
2018-01-15T04:52:47.989Z,2.50
2018-01-15T04:53:48.005Z,2.38
2018-01-15T04:54:48.019Z,2.46
2018-01-15T04:55:48.033Z,2.46
2018-01-15T04:56:48.047Z,2.47
2018-01-15T04:57:48.062Z,2.46
2018-01-15T04:58:48.077Z,2.46
2018-01-15T04:59:48.092Z,2.49
2018-01-15T05:00:48.105Z,2.49
2018-01-15T05:01:48.120Z,2.44
2018-01-15T05:02:48.135Z,2.53
2018-01-15T05:03:48.151Z,2.50
2018-01-15T05:04:48.164Z,2.53
2018-01-15T05:05:48.179Z,2.49
2018-01-15T05:06:48.194Z,2.53
2018-01-15T05:07:48.209Z,2.53
2018-01-15T05:08:48.224Z,2.51
2018-01-15T05:09:48.237Z,2.56
2018-01-15T05:10:48.252Z,2.46
2018-01-15T05:11:48.270Z,2.64
2018-01-15T05:12:48.281Z,2.62
2018-01-15T05:13:48.296Z,2.60
2018-01-15T05:14:48.312Z,2.68
2018-01-15T05:15:48.326Z,2.65
2018-01-15T05:16:48.339Z,2.68
2018-01-15T05:17:48.355Z,2.68
2018-01-15T05:18:48.520Z,2.71
2018-01-15T05:19:48.385Z,2.82
2018-01-15T05:20:48.399Z,2.83
2018-01-15T05:21:48.413Z,2.89
2018-01-15T05:22:48.428Z,2.85
2018-01-15T05:23:48.443Z,2.86
2018-01-15T05:24:48.457Z,2.79
2018-01-15T05:25:48.472Z,2.79
2018-01-15T05:26:48.487Z,2.89
2018-01-15T05:27:48.502Z,2.87
2018-01-15T05:28:48.516Z,2.82
2018-01-15T05:29:48.681Z,2.85
2018-01-15T05:30:48.546Z,2.90
2018-01-15T05:31:48.561Z,2.86
2018-01-15T05:32:48.574Z,2.95
2018-01-15T05:33:48.589Z,2.92
2018-01-15T05:34:48.607Z,2.82
2018-01-15T05:35:48.770Z,2.83
2018-01-15T05:36:48.633Z,2.95
2018-01-15T05:37:48.649Z,2.92
2018-01-15T05:38:48.663Z,2.90
2018-01-15T05:39:48.678Z,2.92
2018-01-15T05:40:48.692Z,2.93
2018-01-15T05:41:48.707Z,2.93
2018-01-15T05:42:48.722Z,2.90
2018-01-15T05:43:48.737Z,2.93
2018-01-15T05:44:48.751Z,2.95
2018-01-15T05:45:48.766Z,3.00
2018-01-15T05:46:48.781Z,3.01
2018-01-15T05:47:48.796Z,3.01
2018-01-15T05:48:48.810Z,3.00
2018-01-15T05:49:48.825Z,3.00
2018-01-15T05:50:48.840Z,2.98
2018-01-15T05:51:48.855Z,3.03
2018-01-15T05:52:48.870Z,2.95
2018-01-15T05:53:48.884Z,3.10
2018-01-15T05:54:48.899Z,3.03
2018-01-15T05:55:48.914Z,3.13
2018-01-15T05:56:48.928Z,3.08
2018-01-15T05:57:48.953Z,3.14
2018-01-15T05:58:48.958Z,3.22
2018-01-15T05:59:48.974Z,3.16
2018-01-15T06:00:48.991Z,3.22
2018-01-15T06:01:49.002Z,3.22
2018-01-15T06:02:49.018Z,3.22
2018-01-15T06:03:49.033Z,3.19
2018-01-15T06:04:49.046Z,3.22
2018-01-15T06:05:49.062Z,3.28
2018-01-15T06:06:49.077Z,3.31
2018-01-15T06:07:49.092Z,3.31
2018-01-15T06:08:49.107Z,3.21
2018-01-15T06:09:49.121Z,3.29
2018-01-15T06:10:49.137Z,3.28
2018-01-15T06:11:49.152Z,3.32
2018-01-15T06:12:49.166Z,3.36
2018-01-15T06:13:49.181Z,3.40
2018-01-15T06:14:49.197Z,3.32
2018-01-15T06:15:49.212Z,3.31
2018-01-15T06:16:49.226Z,3.40
2018-01-15T06:17:49.241Z,3.51
2018-01-15T06:18:49.406Z,3.47
2018-01-15T06:19:49.272Z,3.55
2018-01-15T06:20:49.286Z,3.48
2018-01-15T06:21:49.301Z,3.50
2018-01-15T06:22:49.317Z,3.51
2018-01-15T06:23:49.332Z,3.48
2018-01-15T06:24:49.346Z,3.51
2018-01-15T06:25:49.364Z,3.48
2018-01-15T06:26:49.377Z,3.55
2018-01-15T06:27:49.397Z,3.55
2018-01-15T06:28:49.406Z,3.58
2018-01-15T06:29:49.422Z,3.55
2018-01-15T06:30:49.440Z,3.60
2018-01-15T06:31:49.453Z,3.59
2018-01-15T06:32:49.467Z,3.53
2018-01-15T06:33:49.482Z,3.56
2018-01-15T06:34:49.498Z,3.55
2018-01-15T06:35:49.563Z,3.65
2018-01-15T06:36:49.527Z,3.59
2018-01-15T06:37:49.543Z,3.69
2018-01-15T06:38:49.559Z,3.56
2018-01-15T06:39:49.574Z,3.56
2018-01-15T06:40:49.588Z,3.63
2018-01-15T06:41:49.605Z,3.68
2018-01-15T06:42:49.619Z,3.68
2018-01-15T06:43:49.635Z,3.56
2018-01-15T06:44:49.650Z,3.69
2018-01-15T06:45:49.664Z,3.69
2018-01-15T06:46:49.730Z,3.56
2018-01-15T06:47:49.696Z,3.68
2018-01-15T06:48:49.710Z,3.69
2018-01-15T06:49:49.726Z,3.73
2018-01-15T06:50:49.741Z,3.69
2018-01-15T06:51:49.756Z,3.73
2018-01-15T06:52:49.771Z,3.70
2018-01-15T06:53:49.785Z,3.73
2018-01-15T06:54:49.951Z,3.70
2018-01-15T06:55:49.819Z,3.73
2018-01-15T06:56:49.835Z,3.70
2018-01-15T06:57:49.846Z,3.69
2018-01-15T06:58:49.863Z,3.74
2018-01-15T06:59:49.877Z,3.74
2018-01-15T07:00:49.939Z,3.70
2018-01-15T07:01:49.907Z,3.68
2018-01-15T07:02:49.923Z,3.83
2018-01-15T07:03:49.938Z,3.76
2018-01-15T07:04:49.954Z,3.81
2018-01-15T07:05:49.968Z,3.78
2018-01-15T07:06:49.984Z,3.73
2018-01-15T07:07:49.999Z,3.83
2018-01-15T07:08:50.014Z,3.83
2018-01-15T07:09:50.029Z,3.80
2018-01-15T07:10:50.044Z,3.80
2018-01-15T07:11:50.060Z,3.77
2018-01-15T07:12:50.075Z,3.77
2018-01-15T07:13:50.096Z,3.74
2018-01-15T07:14:50.106Z,3.74
2018-01-15T07:15:50.121Z,3.81
2018-01-15T07:16:50.137Z,3.83
2018-01-15T07:17:50.151Z,3.76
2018-01-15T07:18:50.166Z,3.77
2018-01-15T07:19:50.183Z,3.74
2018-01-15T07:20:50.197Z,3.87
2018-01-15T07:21:50.212Z,3.86
2018-01-15T07:22:50.231Z,3.80
2018-01-15T07:23:50.246Z,3.80
2018-01-15T07:24:50.258Z,3.84
2018-01-15T07:25:50.274Z,3.87
2018-01-15T07:26:50.289Z,3.83
2018-01-15T07:27:50.304Z,3.87
2018-01-15T07:28:50.319Z,3.83
2018-01-15T07:29:50.334Z,3.88
2018-01-15T07:30:50.350Z,3.91
2018-01-15T07:31:50.365Z,3.88
2018-01-15T07:32:50.380Z,3.95
2018-01-15T07:33:50.396Z,3.96
2018-01-15T07:34:50.415Z,3.98
2018-01-15T07:35:50.426Z,3.96
2018-01-15T07:36:50.441Z,3.98
2018-01-15T07:37:50.457Z,3.96
2018-01-15T07:38:50.472Z,4.02
2018-01-15T07:39:50.488Z,3.99
2018-01-15T07:40:50.502Z,4.01
2018-01-15T07:41:50.517Z,3.99
2018-01-15T07:42:50.534Z,3.98
2018-01-15T07:43:50.549Z,3.96
2018-01-15T07:44:50.566Z,3.96
2018-01-15T07:45:50.579Z,3.87
2018-01-15T07:46:50.594Z,4.01
2018-01-15T07:47:50.610Z,3.99
2018-01-15T07:48:50.624Z,4.08
2018-01-15T07:49:50.640Z,4.10
2018-01-15T07:50:50.656Z,4.06
2018-01-15T07:51:50.673Z,4.04
2018-01-15T07:52:50.685Z,3.96
2018-01-15T07:53:50.700Z,3.99
2018-01-15T07:54:50.716Z,4.04
2018-01-15T07:55:50.732Z,4.04
2018-01-15T07:56:50.747Z,4.02
2018-01-15T07:57:50.762Z,4.05
2018-01-15T07:58:50.778Z,4.01
2018-01-15T07:59:50.793Z,4.02
2018-01-15T08:00:50.808Z,4.01
2018-01-15T08:01:50.823Z,4.05
2018-01-15T08:02:50.840Z,4.08
2018-01-15T08:03:50.855Z,4.01
2018-01-15T08:04:50.869Z,4.19
2018-01-15T08:05:50.884Z,4.08
2018-01-15T08:06:50.900Z,4.26
2018-01-15T08:07:50.916Z,4.26
2018-01-15T08:08:50.932Z,4.26
2018-01-15T08:09:50.946Z,4.31
2018-01-15T08:10:50.962Z,4.32
2018-01-15T08:11:50.977Z,4.31
2018-01-15T08:12:50.993Z,4.32
2018-01-15T08:13:51.008Z,4.40
2018-01-15T08:14:51.174Z,4.41
2018-01-15T08:15:51.039Z,4.50
2018-01-15T08:16:51.054Z,4.44
2018-01-15T08:17:51.076Z,4.45
2018-01-15T08:18:51.088Z,4.48
2018-01-15T08:19:51.101Z,4.42
2018-01-15T08:20:51.116Z,4.48
2018-01-15T08:21:51.131Z,4.52
2018-01-15T08:22:51.147Z,4.53
2018-01-15T08:23:51.163Z,4.55
2018-01-15T08:24:51.197Z,4.60
2018-01-15T08:25:51.193Z,4.56
2018-01-15T08:26:51.209Z,4.59
2018-01-15T08:27:51.225Z,4.58
2018-01-15T08:28:51.241Z,4.53
2018-01-15T08:29:51.256Z,4.66
2018-01-15T08:30:51.272Z,4.62
2018-01-15T08:31:51.287Z,4.66
2018-01-15T08:32:51.338Z,4.67
2018-01-15T08:33:51.322Z,4.60
2018-01-15T08:34:51.334Z,4.60
2018-01-15T08:35:51.349Z,4.60
2018-01-15T08:36:51.364Z,4.74
2018-01-15T08:37:51.381Z,4.75
2018-01-15T08:38:51.396Z,4.73
2018-01-15T08:39:51.411Z,4.62
2018-01-15T08:40:51.427Z,4.71
2018-01-15T08:41:51.443Z,4.74
2018-01-15T08:42:51.459Z,4.77
2018-01-15T08:43:51.475Z,4.71
2018-01-15T08:44:51.489Z,4.80
2018-01-15T08:45:51.507Z,4.80
2018-01-15T08:46:51.572Z,4.78
2018-01-15T08:47:51.537Z,4.75
2018-01-15T08:48:51.552Z,4.77
2018-01-15T08:49:51.568Z,4.82
2018-01-15T08:50:51.584Z,4.80
2018-01-15T08:51:51.600Z,4.90
2018-01-15T08:52:51.615Z,4.90
2018-01-15T08:53:51.632Z,4.90
2018-01-15T08:54:51.647Z,4.96
2018-01-15T08:55:51.663Z,4.99
2018-01-15T08:56:51.678Z,5.07
2018-01-15T08:57:51.694Z,5.04
2018-01-15T08:58:51.710Z,5.08
2018-01-15T08:59:51.726Z,5.10
2018-01-15T09:00:51.771Z,5.14
2018-01-15T09:01:51.757Z,5.20
2018-01-15T09:02:51.773Z,5.15
2018-01-15T09:03:51.789Z,5.17
2018-01-15T09:04:51.805Z,5.21
2018-01-15T09:05:51.920Z,5.23
2018-01-15T09:06:51.837Z,5.28
2018-01-15T09:07:51.853Z,5.35
2018-01-15T09:08:51.868Z,5.39
2018-01-15T09:09:51.884Z,5.33
2018-01-15T09:10:51.950Z,5.39
2018-01-15T09:11:51.917Z,5.41
2018-01-15T09:12:51.932Z,5.47
2018-01-15T09:13:51.948Z,5.53
2018-01-15T09:14:51.965Z,5.46
2018-01-15T09:15:52.131Z,5.43
2018-01-15T09:16:51.997Z,5.46
2018-01-15T09:17:52.013Z,5.56
2018-01-15T09:18:52.029Z,5.62
2018-01-15T09:19:52.045Z,5.65
2018-01-15T09:20:52.061Z,5.62
2018-01-15T09:21:52.128Z,5.71
2018-01-15T09:22:52.094Z,5.65
2018-01-15T09:23:52.164Z,5.76
2018-01-15T09:24:52.126Z,5.75
2018-01-15T09:25:52.142Z,5.76
2018-01-15T09:26:52.308Z,5.73
2018-01-15T09:27:52.175Z,5.83
2018-01-15T09:28:52.191Z,5.86
2018-01-15T09:29:52.207Z,5.86
2018-01-15T09:30:52.223Z,5.97
2018-01-15T09:31:52.240Z,5.99
2018-01-15T09:32:52.256Z,5.87
2018-01-15T09:33:52.273Z,5.93
2018-01-15T09:34:52.289Z,5.93
2018-01-15T09:35:52.311Z,5.91
2018-01-15T09:36:52.327Z,5.94
2018-01-15T09:37:52.539Z,5.89
2018-01-15T09:38:52.355Z,5.91
2018-01-15T09:39:52.372Z,5.91
2018-01-15T09:40:52.388Z,5.93
2018-01-15T09:41:52.404Z,5.98
2018-01-15T09:42:52.422Z,6.04
2018-01-15T09:43:52.439Z,6.07
2018-01-15T09:44:52.454Z,6.11
2018-01-15T09:45:52.537Z,6.04
2018-01-15T09:46:52.488Z,6.01
2018-01-15T09:47:52.506Z,6.05
2018-01-15T09:48:52.671Z,6.11
2018-01-15T09:49:52.538Z,6.04
2018-01-15T09:50:52.555Z,6.24
2018-01-15T09:51:52.571Z,6.31
2018-01-15T09:52:52.588Z,6.35
2018-01-15T09:53:52.604Z,6.35
2018-01-15T09:54:52.621Z,6.26
2018-01-15T09:55:52.644Z,6.35
2018-01-15T09:56:52.654Z,6.35
2018-01-15T09:57:52.672Z,6.36
2018-01-15T09:58:52.688Z,6.30
2018-01-15T09:59:52.706Z,6.33
2018-01-15T10:00:52.721Z,6.48
2018-01-15T10:01:52.738Z,6.41
2018-01-15T10:02:52.755Z,6.48
2018-01-15T10:03:52.802Z,6.41
2018-01-15T10:04:52.789Z,6.46
2018-01-15T10:05:52.806Z,6.45
2018-01-15T10:06:52.823Z,6.49
2018-01-15T10:07:52.840Z,6.46
2018-01-15T10:08:52.864Z,6.51
2018-01-15T10:09:52.923Z,6.54
2018-01-15T10:10:52.891Z,6.59
2018-01-15T10:11:52.908Z,6.57
2018-01-15T10:12:52.925Z,6.57
2018-01-15T10:13:52.941Z,6.57
2018-01-15T10:14:52.958Z,6.57
2018-01-15T10:15:52.976Z,6.67
2018-01-15T10:16:52.993Z,6.64
2018-01-15T10:17:53.011Z,6.69
2018-01-15T10:18:53.028Z,6.74
2018-01-15T10:19:53.045Z,6.77
2018-01-15T10:20:53.061Z,6.78
2018-01-15T10:21:53.078Z,6.79
2018-01-15T10:22:53.096Z,6.77
2018-01-15T10:23:53.113Z,6.81
2018-01-15T10:24:53.130Z,6.74
2018-01-15T10:25:53.147Z,6.70
2018-01-15T10:26:53.166Z,6.69
2018-01-15T10:27:53.232Z,6.75
2018-01-15T10:28:53.199Z,6.70
2018-01-15T10:29:53.215Z,6.70
2018-01-15T10:30:53.237Z,6.70
2018-01-15T10:31:53.251Z,6.75
2018-01-15T10:32:53.268Z,6.81
2018-01-15T10:33:53.385Z,6.77
2018-01-15T10:34:53.302Z,6.87
2018-01-15T10:35:53.320Z,6.82
2018-01-15T10:36:53.336Z,6.88
2018-01-15T10:37:53.353Z,6.95
2018-01-15T10:38:53.371Z,6.96
2018-01-15T10:39:53.389Z,6.93
2018-01-15T10:40:53.405Z,6.87
2018-01-15T10:41:53.423Z,7.00
2018-01-15T10:42:53.441Z,6.93
2018-01-15T10:43:53.458Z,7.00
2018-01-15T10:44:53.475Z,6.95
2018-01-15T10:45:53.493Z,6.96
2018-01-15T10:46:53.511Z,6.99
2018-01-15T10:47:53.527Z,7.05
2018-01-15T10:48:53.544Z,7.03
2018-01-15T10:49:53.592Z,7.13
2018-01-15T10:50:53.579Z,7.11
2018-01-15T10:51:53.598Z,7.10
2018-01-15T10:52:53.613Z,7.05
2018-01-15T10:53:53.631Z,7.06
2018-01-15T10:54:53.649Z,7.02
2018-01-15T10:55:53.666Z,7.07
2018-01-15T10:56:53.683Z,7.10
2018-01-15T10:57:53.700Z,7.06
2018-01-15T10:58:53.718Z,7.10
2018-01-15T10:59:53.736Z,7.06
2018-01-15T11:00:53.753Z,7.07
2018-01-15T11:01:54.021Z,7.05
2018-01-15T11:02:53.789Z,7.17
2018-01-15T11:03:53.805Z,7.20
2018-01-15T11:04:53.823Z,7.21
2018-01-15T11:05:53.886Z,7.23
2018-01-15T11:06:53.858Z,7.32
2018-01-15T11:07:53.876Z,7.29
2018-01-15T11:08:53.893Z,7.36
2018-01-15T11:09:53.911Z,7.32
2018-01-15T11:10:53.928Z,7.45
2018-01-15T11:11:54.015Z,7.38
2018-01-15T11:12:53.963Z,7.42
2018-01-15T11:13:53.980Z,7.50
2018-01-15T11:14:54.248Z,7.45
2018-01-15T11:15:54.015Z,7.45
2018-01-15T11:16:54.033Z,7.50
2018-01-15T11:17:54.052Z,7.47
2018-01-15T11:18:54.069Z,7.51
2018-01-15T11:19:54.086Z,7.56
2018-01-15T11:20:54.103Z,7.61
2018-01-15T11:21:54.121Z,7.60
2018-01-15T11:22:54.139Z,7.61
2018-01-15T11:23:54.157Z,7.57
2018-01-15T11:24:54.173Z,7.63
2018-01-15T11:25:54.193Z,7.73
2018-01-15T11:26:54.212Z,7.76
2018-01-15T11:27:54.228Z,7.67
2018-01-15T11:28:54.247Z,7.70
2018-01-15T11:29:54.263Z,7.85
2018-01-15T11:30:54.284Z,7.87
2018-01-15T11:31:54.299Z,7.83
2018-01-15T11:32:54.315Z,7.91
2018-01-15T11:33:54.333Z,7.91
2018-01-15T11:34:54.402Z,7.94
2018-01-15T11:35:54.369Z,7.91
2018-01-15T11:36:54.386Z,7.93
2018-01-15T11:37:54.406Z,7.93
2018-01-15T11:38:54.422Z,7.97
2018-01-15T11:39:54.440Z,7.95
2018-01-15T11:40:54.466Z,7.90
2018-01-15T11:41:54.476Z,8.00
2018-01-15T11:42:54.494Z,7.87
2018-01-15T11:43:54.512Z,7.94
2018-01-15T11:44:54.530Z,7.94
2018-01-15T11:45:54.548Z,7.93
2018-01-15T11:46:54.566Z,7.93
2018-01-15T11:47:54.584Z,7.95
2018-01-15T11:48:54.601Z,7.98
2018-01-15T11:49:54.619Z,7.93
2018-01-15T11:50:54.638Z,8.00
2018-01-15T11:51:54.655Z,8.05
2018-01-15T11:52:54.673Z,7.95
2018-01-15T11:53:54.690Z,8.01
2018-01-15T11:54:54.709Z,8.03
2018-01-15T11:55:54.783Z,7.98
2018-01-15T11:56:54.745Z,8.00
2018-01-15T11:57:54.762Z,8.03
2018-01-15T11:58:54.781Z,8.03
2018-01-15T11:59:54.799Z,8.18
2018-01-15T12:00:54.816Z,8.06
2018-01-15T12:01:54.846Z,8.09
2018-01-15T12:02:54.854Z,8.15
2018-01-15T12:03:54.871Z,8.16
2018-01-15T12:04:54.888Z,8.23
2018-01-15T12:05:54.905Z,8.19
2018-01-15T12:06:54.924Z,8.19
2018-01-15T12:07:54.942Z,8.18
2018-01-15T12:08:54.959Z,8.19
2018-01-15T12:09:54.978Z,8.27
2018-01-15T12:10:54.995Z,8.23
2018-01-15T12:11:55.014Z,8.19
2018-01-15T12:12:55.033Z,8.19
2018-01-15T12:13:55.202Z,8.09
2018-01-15T12:14:55.069Z,8.16
2018-01-15T12:15:55.119Z,8.19
2018-01-15T12:16:55.104Z,8.16
2018-01-15T12:17:55.123Z,8.16
2018-01-15T12:18:55.140Z,8.16
2018-01-15T12:19:55.158Z,8.19
2018-01-15T12:20:55.176Z,8.09
2018-01-15T12:21:55.227Z,8.05
2018-01-15T12:22:55.212Z,8.12
2018-01-15T12:23:55.230Z,8.19
2018-01-15T12:24:55.249Z,8.12
2018-01-15T12:25:55.266Z,8.15
2018-01-15T12:26:55.334Z,8.09
2018-01-15T12:27:55.302Z,8.10
2018-01-15T12:28:55.320Z,8.13
2018-01-15T12:29:55.339Z,8.16
2018-01-15T12:30:55.356Z,8.09
2018-01-15T12:31:55.375Z,8.13
2018-01-15T12:32:55.391Z,8.16
2018-01-15T12:33:55.410Z,8.12
2018-01-15T12:34:55.431Z,8.13
2018-01-15T12:35:55.448Z,8.16
2018-01-15T12:36:55.465Z,8.20
2018-01-15T12:37:55.482Z,8.08
2018-01-15T12:38:55.499Z,8.15
2018-01-15T12:39:55.518Z,8.20
2018-01-15T12:40:55.535Z,8.15
2018-01-15T12:41:55.555Z,8.19
2018-01-15T12:42:55.573Z,8.20
2018-01-15T12:43:55.590Z,8.19
2018-01-15T12:44:55.607Z,8.15
2018-01-15T12:45:55.626Z,8.13
2018-01-15T12:46:55.644Z,8.12
2018-01-15T12:47:55.662Z,8.24
2018-01-15T12:48:55.680Z,8.13
2018-01-15T12:49:55.699Z,8.15
2018-01-15T12:50:55.716Z,8.23
2018-01-15T12:51:55.734Z,8.16
2018-01-15T12:52:55.756Z,8.24
2018-01-15T12:53:55.770Z,8.18
2018-01-15T12:54:55.788Z,8.16
2018-01-15T12:55:55.807Z,8.20
2018-01-15T12:56:55.823Z,8.19
2018-01-15T12:57:55.848Z,8.20
2018-01-15T12:58:55.860Z,8.13
2018-01-15T12:59:56.679Z,8.23
2018-01-15T13:00:55.895Z,8.13
2018-01-15T13:01:55.913Z,8.19
2018-01-15T13:02:55.934Z,8.10
2018-01-15T13:03:55.951Z,8.13
2018-01-15T13:04:55.967Z,8.16
2018-01-15T13:05:55.985Z,8.12
2018-01-15T13:06:56.003Z,8.16
2018-01-15T13:07:56.021Z,8.12
2018-01-15T13:08:56.040Z,8.20
2018-01-15T13:09:56.057Z,8.16
2018-01-15T13:10:56.105Z,8.13
2018-01-15T13:11:56.094Z,8.18
2018-01-15T13:12:56.112Z,8.18
2018-01-15T13:13:56.128Z,8.18
2018-01-15T13:14:56.147Z,8.19
2018-01-15T13:15:56.165Z,8.16
2018-01-15T13:16:56.182Z,8.08
2018-01-15T13:17:56.200Z,8.13
2018-01-15T13:18:56.220Z,8.12